Nearby METAR Reports

 

RPLL - Ninoy Aquino Int, Philippines
Distance from station: 0 19km
Updated: 06/25/2018 9:00pm
Thunderstorm, Overcast
Thunderstorm, Overcast
 Wind from NW
Wind: NW 17 km/h
Temperature: 26°C
Dew Point: 26°C
Humidity: 100%
Barometer: 1011 hPa
Summary: Thunderstorm
Clouds: Overcast
Visibility: 9 km
Cloud details: Few Clouds 518 m
Mostly cloudy 549 m
Overcast 2743 m
2018/06/25 13:00 RPLL 251300Z 32009KT 280V350 9000 TS FEW017CB BKN018 OVC090 26/26 Q1011 NOSIG RMK A2985 CB OHD W
RPLB - Olongapo/Subic, Philippines
Distance from station: WNW 93km
Updated: 06/25/2018 9:00pm
Light thunderstorm, Rain, Overcast
Light thunderstorm, Rain, Overcast
 Wind from varies
Wind: varies 4 km/h
Temperature: 24°C
Dew Point: 23°C
Humidity: 94%
Barometer: 1012 hPa
Summary: Light thunderstorm, Rain
Clouds: Overcast
Visibility: 8 km
Cloud details: Few Clouds 549 m
Partly cloudy 610 m
Overcast 2438 m
2018/06/25 13:00 RPLB 251300Z VRB02KT 8000 -TSRA FEW018CB SCT020 OVC080 24/23 Q1012 RMK A2988
 
RPLC - Angeles/Pampanga, Philippines
Distance from station: NNW 101km
Updated: 06/25/2018 9:00pm
Overcast
Overcast
 Wind from S
Wind: S 11 km/h
Temperature: 25°C
Dew Point: 25°C
Humidity: 100%
Barometer: 1012 hPa
Clouds: Overcast
Visibility: 10 km
Cloud details: Partly cloudy 610 m
Overcast 3048 m
2018/06/25 13:00 RPLC 251300Z 18006KT 9999 SCT020 OVC100 25/25 Q1012 RMK A2988
RPLI - Laoag Intl(Ph-Ar, Philippines
Distance from station: N 427km
Updated: 06/25/2018 8:00pm
NOT Current
Mostly cloudy
Mostly cloudy
 Wind from SE
Wind: SE 4 km/h
Temperature: 27°C
Heat Index: 31°C
Dew Point: 25°C
Humidity: 89%
Barometer: 1009 hPa
Clouds: Mostly cloudy
Visibility: 10 km
Cloud details: Few Clouds 579 m
Partly cloudy 3048 m
Mostly cloudy 8534 m
2018/06/25 12:00 RPLI 251200Z 14002KT 9999 FEW019 SCT100 BKN280 27/25 Q1009 NOSIG RMK A2980
 
RPVM - Mactan-Cebu, Philippines
Distance from station: SE 553km
Updated: 06/25/2018 8:00pm
NOT Current
Overcast
Overcast
 Wind from NE
Wind: NE 9 km/h
Temperature: 27°C
Heat Index: 30°C
Dew Point: 23°C
Humidity: 79%
Barometer: 1010 hPa
Clouds: Overcast
Visibility: 10 km
Cloud details: Few Clouds 549 m
Mostly cloudy 2743 m
Overcast 7620 m
2018/06/25 12:00 RPVM 251200Z 05005KT 9999 FEW018CB BKN090 OVC250 27/23 Q1010 NOSIG RMK A2983 CB SSW
RPVP - Puerto Princesa, Philippines
Distance from station: SE 553km
Updated: 06/25/2018 8:00pm
NOT Current
Few Clouds
Few Clouds
 Wind from N
Wind: N 4 km/h
Temperature: 28°C
Heat Index: 32°C
Dew Point: 24°C
Humidity: 79%
Barometer: 1009 hPa
Clouds: Few Clouds
Visibility: 10 km
Cloud details: Few Clouds 579 m
2018/06/25 12:00 RPVP 251200Z 36002KT 9999 FEW019 28/24 Q1009 RMK A2980
 
RPMD - Davao City, Philippines
Distance from station: SE 553km
Updated: 06/25/2018 9:00pm
Partly cloudy
Partly cloudy
 Wind from SSW
Wind: SSW 9 km/h
Temperature: 28°C
Heat Index: 32°C
Dew Point: 24°C
Humidity: 79%
Barometer: 1011 hPa
Clouds: Partly cloudy
Visibility: 10 km
Cloud details: Partly cloudy 457 m
Partly cloudy 2743 m
2018/06/25 13:00 RPMD 251300Z 20005KT 170V240 9999 SCT015CB SCT090 28/24 Q1011 RMK A2985 CB SW-NW W/ OCNL LTG
RPMR - General Santos City, Philippines
Distance from station: SE 553km
Updated: 06/25/2018 5:00pm
NOT Current
Partly cloudy
Partly cloudy
 Wind from SW
Wind: SW 7 km/h
Temperature: 28°C
Heat Index: 32°C
Dew Point: 24°C
Humidity: 79%
Barometer: 1009 hPa
Clouds: Partly cloudy
Visibility: 10 km
Cloud details: Few Clouds 610 m
Partly cloudy 2438 m
2018/06/25 09:00 RPMR 250900Z 22004KT 9999 FEW020CB SCT080 28/24 Q1009 NOSIG RMK A2980 CB N W NW E DSTNT PCPN N
 
RPMZ - Zamboanga, Philippines
Distance from station: NE 14km
Updated: 06/25/2018 8:00pm
NOT Current
Mostly cloudy
Mostly cloudy
 Wind from NNE
Wind: NNE 4 km/h
Temperature: 27°C
Heat Index: 31°C
Dew Point: 25°C
Humidity: 89%
Barometer: 1009 hPa
Clouds: Mostly cloudy
Visibility: 10 km
Cloud details: Few Clouds 518 m
Mostly cloudy 9144 m
2018/06/25 12:00 RPMZ 251200Z 02002KT 9999 FEW017 BKN300 27/25 Q1009 RMK A2980
www.000webhost.com